createdAt,value
2017-12-11T00:00:56.195Z,64.60
2017-12-11T00:03:23.686Z,64.60
2017-12-11T00:05:51.175Z,65.00
2017-12-11T00:08:18.694Z,64.70
2017-12-11T00:10:46.974Z,64.70
2017-12-11T00:13:15.260Z,64.70
2017-12-11T00:15:42.779Z,64.70
2017-12-11T00:18:11.047Z,64.80
2017-12-11T00:20:38.525Z,64.80
2017-12-11T00:23:06.779Z,64.80
2017-12-11T00:25:34.255Z,64.80
2017-12-11T00:28:02.722Z,64.80
2017-12-11T00:30:30.222Z,64.80
2017-12-11T00:32:57.986Z,64.90
2017-12-11T00:35:25.497Z,64.80
2017-12-11T00:37:52.964Z,64.90
2017-12-11T00:40:20.469Z,64.90
2017-12-11T00:42:47.934Z,64.90
2017-12-11T00:45:15.530Z,64.90
2017-12-11T00:47:43.167Z,64.90
2017-12-11T00:50:10.719Z,65.00
2017-12-11T00:52:38.205Z,64.90
2017-12-11T00:55:05.703Z,64.90
2017-12-11T00:57:33.181Z,65.70
2017-12-11T01:00:00.675Z,64.90
2017-12-11T01:02:28.455Z,65.00
2017-12-11T01:04:56.773Z,65.00
2017-12-11T01:07:24.372Z,65.00
2017-12-11T01:09:51.843Z,65.00
2017-12-11T01:12:19.310Z,65.00
2017-12-11T01:14:47.567Z,65.10
2017-12-11T01:17:15.051Z,65.00
2017-12-11T01:19:42.927Z,65.00
2017-12-11T01:22:10.650Z,65.00
2017-12-11T01:24:38.313Z,65.00
2017-12-11T01:27:05.828Z,65.00
2017-12-11T01:29:33.298Z,65.00
2017-12-11T01:32:00.771Z,65.00
2017-12-11T01:34:28.303Z,65.00
2017-12-11T01:36:55.982Z,65.00
2017-12-11T01:39:23.525Z,65.00
2017-12-11T01:41:51.135Z,65.00
2017-12-11T01:44:18.583Z,65.00
2017-12-11T01:46:46.840Z,65.00
2017-12-11T01:49:15.821Z,65.00
2017-12-11T01:51:43.305Z,65.00
2017-12-11T01:54:10.883Z,65.00
2017-12-11T01:56:39.169Z,65.00
2017-12-11T01:59:06.838Z,65.00
2017-12-11T02:01:35.159Z,65.00
2017-12-11T02:04:03.623Z,65.00
2017-12-11T02:06:31.156Z,65.00
2017-12-11T02:08:59.470Z,65.00
2017-12-11T02:11:26.954Z,65.00
2017-12-11T02:13:54.427Z,65.00
2017-12-11T02:16:22.670Z,65.00
2017-12-11T02:18:50.375Z,65.00
2017-12-11T02:21:18.150Z,65.00
2017-12-11T02:23:45.727Z,65.00
2017-12-11T02:26:13.214Z,65.00
2017-12-11T02:28:40.695Z,65.00
2017-12-11T02:31:08.939Z,65.00
2017-12-11T02:33:36.499Z,65.00
2017-12-11T02:36:03.975Z,65.00
2017-12-11T02:38:32.367Z,65.30
2017-12-11T02:41:00.748Z,65.00
2017-12-11T02:43:29.271Z,65.10
2017-12-11T02:45:56.835Z,65.00
2017-12-11T02:48:24.311Z,65.00
2017-12-11T02:50:51.786Z,65.00
2017-12-11T02:53:20.032Z,65.00
2017-12-11T02:55:47.520Z,65.00
2017-12-11T02:58:15.763Z,65.00
2017-12-11T03:00:43.270Z,65.00
2017-12-11T03:03:10.775Z,65.00
2017-12-11T03:05:38.244Z,65.00
2017-12-11T03:08:05.746Z,64.90
2017-12-11T03:10:33.979Z,64.90
2017-12-11T03:13:01.465Z,64.90
2017-12-11T03:15:29.775Z,65.00
2017-12-11T03:17:57.469Z,64.90
2017-12-11T03:20:25.356Z,64.90
2017-12-11T03:22:52.948Z,64.90
2017-12-11T03:25:21.194Z,65.00
2017-12-11T03:27:48.649Z,65.00
2017-12-11T03:30:16.903Z,65.60
2017-12-11T03:32:44.378Z,65.00
2017-12-11T03:35:12.641Z,65.10
2017-12-11T03:37:40.159Z,65.00
2017-12-11T03:40:07.659Z,65.00
2017-12-11T03:42:35.257Z,65.00
2017-12-11T03:45:03.516Z,65.10
2017-12-11T03:47:31.778Z,65.00
2017-12-11T03:49:59.285Z,65.10
2017-12-11T03:52:26.750Z,65.10
2017-12-11T03:54:54.238Z,65.10
2017-12-11T03:57:21.846Z,65.10
2017-12-11T03:59:49.370Z,65.10
2017-12-11T04:02:16.917Z,65.10
2017-12-11T04:04:44.432Z,65.10
2017-12-11T04:07:11.913Z,65.00
2017-12-11T04:09:39.385Z,65.00
2017-12-11T04:12:07.013Z,65.00
2017-12-11T04:14:34.692Z,65.00
2017-12-11T04:17:02.291Z,65.00
2017-12-11T04:19:30.626Z,64.90
2017-12-11T04:21:58.086Z,64.90
2017-12-11T04:24:25.578Z,65.00
2017-12-11T04:26:53.823Z,65.00
2017-12-11T04:29:21.429Z,64.90
2017-12-11T04:31:49.077Z,64.90
2017-12-11T04:34:17.359Z,65.00
2017-12-11T04:36:45.698Z,65.00
2017-12-11T04:39:13.156Z,65.00
2017-12-11T04:41:40.656Z,65.00
2017-12-11T04:44:08.135Z,65.00
2017-12-11T04:46:35.605Z,65.10
2017-12-11T04:49:03.139Z,65.10
2017-12-11T04:51:30.666Z,65.00
2017-12-11T04:53:59.234Z,65.20
2017-12-11T04:56:26.707Z,65.10
2017-12-11T04:58:55.059Z,65.10
2017-12-11T05:01:22.549Z,65.10
2017-12-11T05:03:50.786Z,65.10
2017-12-11T05:06:18.275Z,65.20
2017-12-11T05:08:46.558Z,65.20
2017-12-11T05:11:14.891Z,65.20
2017-12-11T05:13:42.685Z,65.20
2017-12-11T05:16:10.532Z,65.20
2017-12-11T05:18:38.222Z,65.40
2017-12-11T05:21:05.691Z,65.20
2017-12-11T05:23:33.176Z,65.30
2017-12-11T05:26:00.650Z,65.30
2017-12-11T05:28:28.154Z,65.30
2017-12-11T05:30:56.418Z,65.40
2017-12-11T05:33:24.722Z,65.50
2017-12-11T05:35:52.212Z,65.40
2017-12-11T05:38:19.775Z,65.40
2017-12-11T05:40:47.259Z,65.30
2017-12-11T05:43:14.734Z,65.30
2017-12-11T05:45:42.982Z,65.30
2017-12-11T05:48:10.562Z,65.30
2017-12-11T05:50:38.826Z,65.20
2017-12-11T05:53:06.412Z,65.20
2017-12-11T05:55:33.947Z,65.30
2017-12-11T05:58:02.198Z,65.90
2017-12-11T06:00:29.698Z,65.30
2017-12-11T06:02:57.950Z,65.50
2017-12-11T06:05:26.214Z,65.50
2017-12-11T06:07:53.713Z,65.20
2017-12-11T06:10:21.218Z,65.80
2017-12-11T06:12:49.106Z,65.90
2017-12-11T06:15:16.626Z,66.00
2017-12-11T06:17:44.108Z,66.10
2017-12-11T06:20:11.602Z,66.20
2017-12-11T06:22:39.834Z,66.30
2017-12-11T06:25:07.314Z,66.30
2017-12-11T06:27:34.808Z,67.20
2017-12-11T06:30:02.380Z,67.40
2017-12-11T06:32:29.887Z,66.50
2017-12-11T06:34:57.461Z,66.70
2017-12-11T06:37:24.954Z,66.00
2017-12-11T06:39:52.710Z,66.70
2017-12-11T06:42:20.206Z,66.80
2017-12-11T06:44:47.825Z,66.80
2017-12-11T06:47:15.313Z,66.90
2017-12-11T06:49:43.378Z,66.80
2017-12-11T06:52:10.905Z,66.80
2017-12-11T06:54:38.476Z,67.00
2017-12-11T06:57:05.987Z,67.10
2017-12-11T06:59:33.472Z,67.10
2017-12-11T07:02:00.998Z,67.10
2017-12-11T07:04:28.493Z,67.00
2017-12-11T07:06:55.982Z,67.00
2017-12-11T07:09:23.675Z,66.80
2017-12-11T07:11:51.949Z,67.00
2017-12-11T07:14:19.570Z,66.80
2017-12-11T07:16:47.031Z,66.80
2017-12-11T07:19:14.571Z,66.90
2017-12-11T07:21:42.058Z,66.80
2017-12-11T07:24:09.867Z,66.60
2017-12-11T07:26:37.337Z,66.70
2017-12-11T07:29:04.960Z,66.70
2017-12-11T07:31:32.422Z,66.60
2017-12-11T07:34:00.007Z,66.70
2017-12-11T07:36:28.272Z,66.60
2017-12-11T07:38:56.546Z,66.60
2017-12-11T07:41:24.798Z,66.60
2017-12-11T07:43:52.298Z,66.60
2017-12-11T07:46:19.894Z,66.60
2017-12-11T07:48:47.375Z,66.60
2017-12-11T07:51:14.854Z,66.40
2017-12-11T07:53:43.101Z,66.50
2017-12-11T07:56:10.690Z,66.50
2017-12-11T07:58:38.291Z,66.50
2017-12-11T08:01:05.766Z,66.50
2017-12-11T08:03:33.443Z,66.60
2017-12-11T08:06:00.922Z,66.60
2017-12-11T08:08:29.306Z,66.50
2017-12-11T08:10:57.695Z,66.70
2017-12-11T08:13:25.939Z,66.70
2017-12-11T08:15:53.549Z,66.70
2017-12-11T08:18:21.030Z,66.70
2017-12-11T08:20:48.627Z,66.70
2017-12-11T08:23:16.892Z,66.80
2017-12-11T08:25:44.511Z,66.60
2017-12-11T08:28:12.021Z,66.80
2017-12-11T08:30:40.394Z,67.00
2017-12-11T08:33:08.647Z,67.00
2017-12-11T08:35:36.186Z,67.00
2017-12-11T08:38:03.673Z,67.00
2017-12-11T08:40:31.230Z,67.00
2017-12-11T08:42:58.706Z,67.00
2017-12-11T08:45:26.961Z,67.10
2017-12-11T08:47:54.466Z,67.10
2017-12-11T08:50:22.074Z,67.10
2017-12-11T08:52:50.523Z,67.30
2017-12-11T08:55:18.061Z,67.30
2017-12-11T08:57:46.291Z,67.30
2017-12-11T09:00:14.535Z,67.30
2017-12-11T09:02:42.019Z,67.40
2017-12-11T09:05:09.510Z,67.40
2017-12-11T09:07:37.776Z,67.40
2017-12-11T09:10:06.022Z,67.50
2017-12-11T09:12:33.618Z,67.40
2017-12-11T09:15:01.139Z,67.50
2017-12-11T09:17:28.634Z,67.40
2017-12-11T09:19:56.120Z,67.50
2017-12-11T09:22:23.612Z,67.50
2017-12-11T09:24:51.126Z,67.60
2017-12-11T09:27:18.825Z,67.70
2017-12-11T09:29:46.427Z,67.70
2017-12-11T09:32:14.692Z,67.20
2017-12-11T09:34:42.154Z,67.80
2017-12-11T09:37:10.422Z,67.90
2017-12-11T09:39:37.896Z,67.90
2017-12-11T09:42:05.448Z,68.00
2017-12-11T09:44:33.694Z,68.10
2017-12-11T09:47:01.222Z,68.10
2017-12-11T09:49:28.824Z,68.30
2017-12-11T09:51:56.310Z,68.30
2017-12-11T09:54:23.797Z,68.90
2017-12-11T09:56:51.291Z,68.60
2017-12-11T09:59:18.781Z,68.70
2017-12-11T10:01:47.042Z,68.80
2017-12-11T10:04:15.338Z,68.90
2017-12-11T10:06:42.916Z,68.90
2017-12-11T10:09:10.387Z,68.90
2017-12-11T10:11:47.795Z,69.00
2017-12-11T10:14:15.470Z,69.00
2017-12-11T10:16:42.951Z,69.10
2017-12-11T10:19:11.421Z,69.20
2017-12-11T10:21:39.775Z,69.30
2017-12-11T10:24:07.278Z,69.20
2017-12-11T10:26:34.783Z,69.30
2017-12-11T10:29:02.275Z,69.50
2017-12-11T10:31:30.522Z,69.70
2017-12-11T10:33:58.339Z,69.70
2017-12-11T10:36:25.842Z,69.50
2017-12-11T10:38:53.411Z,69.50
2017-12-11T10:41:20.878Z,69.40
2017-12-11T10:43:49.153Z,69.30
2017-12-11T10:46:16.723Z,69.30
2017-12-11T10:48:44.338Z,69.30
2017-12-11T10:51:11.838Z,69.20
2017-12-11T10:53:40.225Z,69.30
2017-12-11T10:56:07.743Z,69.20
2017-12-11T10:58:35.242Z,70.10
2017-12-11T11:01:03.503Z,69.60
2017-12-11T11:03:31.751Z,69.60
2017-12-11T11:05:59.230Z,69.60
2017-12-11T11:08:27.486Z,69.70
2017-12-11T11:10:55.026Z,69.70
2017-12-11T11:13:22.506Z,69.70
2017-12-11T11:15:50.005Z,69.70
2017-12-11T11:18:18.408Z,69.70
2017-12-11T11:20:45.895Z,69.70
2017-12-11T11:23:13.423Z,69.70
2017-12-11T11:25:40.902Z,69.70
2017-12-11T11:28:08.499Z,69.60
2017-12-11T11:30:36.938Z,69.60
2017-12-11T11:33:04.589Z,69.50
2017-12-11T11:35:32.094Z,69.50
2017-12-11T11:38:00.350Z,69.60
2017-12-11T11:40:27.843Z,69.60
2017-12-11T11:42:56.082Z,69.60
2017-12-11T11:45:24.363Z,69.50
2017-12-11T11:47:51.845Z,69.60
2017-12-11T11:50:19.395Z,69.50
2017-12-11T11:52:47.657Z,69.40
2017-12-11T11:55:15.138Z,69.40
2017-12-11T11:57:43.375Z,69.40
2017-12-11T12:00:10.847Z,69.40
2017-12-11T12:02:39.131Z,69.40
2017-12-11T12:05:07.396Z,69.50
2017-12-11T12:07:35.019Z,69.50
2017-12-11T12:10:02.583Z,69.60
2017-12-11T12:12:30.150Z,69.70
2017-12-11T12:14:57.719Z,69.80
2017-12-11T12:17:25.213Z,69.90
2017-12-11T12:19:53.454Z,70.00
2017-12-11T12:22:21.110Z,69.80
2017-12-11T12:24:48.706Z,69.90
2017-12-11T12:27:17.022Z,70.00
2017-12-11T12:29:44.506Z,70.00
2017-12-11T12:32:11.990Z,70.00
2017-12-11T12:34:40.232Z,70.00
2017-12-11T12:37:07.733Z,70.00
2017-12-11T12:39:35.289Z,70.00
2017-12-11T12:42:02.786Z,70.00
2017-12-11T12:44:30.320Z,70.00
2017-12-11T12:46:57.903Z,70.00
2017-12-11T12:49:25.518Z,70.00
2017-12-11T12:51:53.794Z,70.10
2017-12-11T12:54:22.109Z,70.10
2017-12-11T12:56:49.680Z,70.10
2017-12-11T12:59:17.183Z,70.10
2017-12-11T13:01:45.626Z,70.00
2017-12-11T13:04:13.101Z,70.00
2017-12-11T13:06:40.618Z,70.00
2017-12-11T13:09:08.178Z,70.00
2017-12-11T13:11:35.699Z,70.00
2017-12-11T13:14:03.220Z,70.00
2017-12-11T13:16:30.910Z,70.00
2017-12-11T13:18:58.390Z,70.00
2017-12-11T13:24:00.590Z,70.20
2017-12-11T13:26:28.073Z,70.10
2017-12-11T13:28:55.642Z,70.20
2017-12-11T13:31:24.630Z,70.30
2017-12-11T13:33:52.165Z,70.30
2017-12-11T13:36:19.659Z,70.30
2017-12-11T13:38:47.176Z,70.30
2017-12-11T13:41:14.696Z,70.40
2017-12-11T13:43:42.937Z,70.50
2017-12-11T13:46:10.570Z,70.50
2017-12-11T13:48:38.048Z,70.50
2017-12-11T13:51:05.755Z,70.60
2017-12-11T13:53:34.010Z,71.70
2017-12-11T13:56:01.527Z,71.50
2017-12-11T13:58:29.049Z,71.60
2017-12-11T14:00:57.459Z,71.20
2017-12-11T14:03:24.947Z,71.20
2017-12-11T14:05:52.490Z,71.00
2017-12-11T14:08:19.982Z,70.90
2017-12-11T14:10:48.266Z,70.80
2017-12-11T14:13:16.518Z,70.80
2017-12-11T14:15:44.047Z,70.70
2017-12-11T14:18:11.522Z,70.80
2017-12-11T14:20:39.233Z,70.80
2017-12-11T14:23:07.472Z,70.80
2017-12-11T14:25:34.958Z,70.80
2017-12-11T14:28:03.201Z,70.80
2017-12-11T14:30:30.703Z,70.80
2017-12-11T14:32:58.375Z,70.80
2017-12-11T14:35:25.905Z,70.90
2017-12-11T14:37:54.198Z,70.50
2017-12-11T14:40:21.696Z,70.50
2017-12-11T14:42:49.173Z,70.40
2017-12-11T14:45:16.725Z,71.00
2017-12-11T14:47:44.227Z,71.30
2017-12-11T14:50:11.874Z,71.60
2017-12-11T14:52:40.384Z,72.80
2017-12-11T14:55:07.943Z,72.00
2017-12-11T14:57:35.430Z,72.00
2017-12-11T15:00:02.917Z,72.00
2017-12-11T15:02:31.171Z,72.00
2017-12-11T15:04:58.651Z,71.90
2017-12-11T15:07:26.917Z,72.00
2017-12-11T15:09:54.433Z,71.90
2017-12-11T15:12:21.915Z,71.90
2017-12-11T15:14:49.395Z,71.90
2017-12-11T15:17:17.691Z,72.50
2017-12-11T15:19:45.926Z,71.70
2017-12-11T15:22:13.751Z,71.80
2017-12-11T15:24:41.234Z,71.60
2017-12-11T15:27:08.726Z,71.60
2017-12-11T15:29:36.986Z,71.60
2017-12-11T15:32:04.454Z,71.50
2017-12-11T15:34:31.956Z,71.50
2017-12-11T15:36:59.503Z,71.50
2017-12-11T15:39:27.776Z,71.40
2017-12-11T15:41:56.136Z,71.40
2017-12-11T15:44:24.371Z,71.40
2017-12-11T15:46:51.874Z,71.40
2017-12-11T15:49:19.363Z,71.50
2017-12-11T15:51:46.975Z,72.40
2017-12-11T15:54:15.284Z,72.60
2017-12-11T15:56:42.814Z,71.60
2017-12-11T15:59:11.093Z,71.50
2017-12-11T16:01:38.562Z,71.50
2017-12-11T16:04:06.042Z,71.80
2017-12-11T16:06:33.679Z,71.70
2017-12-11T16:09:01.969Z,71.90
2017-12-11T16:11:29.481Z,71.70
2017-12-11T16:13:56.990Z,75.40
2017-12-11T16:16:24.537Z,75.70
2017-12-11T16:18:52.031Z,76.40
2017-12-11T16:21:19.581Z,75.70
2017-12-11T16:23:47.088Z,75.90
2017-12-11T16:26:14.743Z,75.80
2017-12-11T16:28:42.241Z,75.50
2017-12-11T16:31:09.738Z,73.30
2017-12-11T16:33:37.231Z,74.70
2017-12-11T16:36:04.744Z,74.20
2017-12-11T16:38:32.274Z,74.40
2017-12-11T16:40:59.859Z,75.90
2017-12-11T16:43:28.643Z,75.60
2017-12-11T16:45:56.319Z,74.00
2017-12-11T16:48:24.657Z,74.80
2017-12-11T16:50:52.215Z,74.60
2017-12-11T16:53:19.693Z,75.10
2017-12-11T16:55:47.210Z,74.30
2017-12-11T16:58:15.474Z,74.80
2017-12-11T17:00:43.733Z,76.30
2017-12-11T17:03:11.311Z,76.30
2017-12-11T17:05:39.647Z,77.20
2017-12-11T17:08:07.356Z,77.20
2017-12-11T17:10:35.022Z,77.90
2017-12-11T17:13:03.353Z,75.80
2017-12-11T17:15:30.906Z,75.80
2017-12-11T17:17:58.411Z,74.30
2017-12-11T17:20:26.686Z,74.80
2017-12-11T17:22:54.954Z,74.70
2017-12-11T17:25:23.263Z,74.70
2017-12-11T17:27:51.187Z,74.70
2017-12-11T17:30:18.690Z,74.90
2017-12-11T17:32:46.192Z,74.90
2017-12-11T17:35:13.733Z,74.70
2017-12-11T17:37:41.310Z,74.70
2017-12-11T17:40:08.845Z,74.70
2017-12-11T17:42:36.344Z,74.70
2017-12-11T17:45:04.626Z,75.00
2017-12-11T17:47:32.197Z,74.50
2017-12-11T17:50:00.491Z,74.40
2017-12-11T17:52:28.050Z,74.40
2017-12-11T17:54:55.817Z,74.40
2017-12-11T17:57:23.411Z,74.40
2017-12-11T17:59:50.915Z,74.20
2017-12-11T18:02:19.172Z,74.10
2017-12-11T18:04:47.423Z,74.10
2017-12-11T18:07:14.969Z,74.00
2017-12-11T18:09:42.602Z,74.10
2017-12-11T18:12:10.188Z,73.90
2017-12-11T18:14:37.723Z,73.80
2017-12-11T18:17:05.232Z,73.80
2017-12-11T18:19:32.740Z,73.70
2017-12-11T18:22:00.211Z,73.60
2017-12-11T18:24:27.698Z,73.50
2017-12-11T18:26:55.238Z,73.60
2017-12-11T18:29:22.734Z,73.60
2017-12-11T18:31:51.010Z,73.50
2017-12-11T18:34:19.248Z,73.50
2017-12-11T18:36:46.753Z,73.50
2017-12-11T18:39:14.405Z,73.50
2017-12-11T18:41:42.662Z,73.40
2017-12-11T18:44:10.386Z,73.40
2017-12-11T18:46:37.966Z,73.40
2017-12-11T18:49:05.465Z,73.40
2017-12-11T18:51:33.714Z,73.50
2017-12-11T18:54:01.199Z,73.50
2017-12-11T18:56:28.739Z,73.70
2017-12-11T18:58:57.046Z,73.70
2017-12-11T19:01:24.583Z,73.70
2017-12-11T19:03:52.875Z,73.60
2017-12-11T19:06:20.363Z,73.60
2017-12-11T19:08:47.851Z,73.50
2017-12-11T19:11:16.030Z,73.50
2017-12-11T19:13:43.556Z,73.50
2017-12-11T19:16:11.118Z,73.50
2017-12-11T19:18:38.641Z,73.60
2017-12-11T19:21:06.156Z,73.50
2017-12-11T19:23:33.663Z,73.40
2017-12-11T19:26:01.149Z,73.40
2017-12-11T19:28:28.853Z,73.40
2017-12-11T19:30:57.299Z,73.30
2017-12-11T19:33:25.170Z,73.30
2017-12-11T19:35:53.967Z,73.40
2017-12-11T19:38:21.610Z,73.30
2017-12-11T19:40:49.400Z,73.30
2017-12-11T19:43:16.955Z,73.20
2017-12-11T19:45:44.771Z,73.20
2017-12-11T19:48:12.289Z,73.20
2017-12-11T19:50:40.847Z,73.20
2017-12-11T19:53:09.463Z,73.20
2017-12-11T19:55:37.311Z,73.20
2017-12-11T19:58:04.903Z,73.10
2017-12-11T20:00:32.371Z,73.20
2017-12-11T20:03:00.140Z,74.00
2017-12-11T20:05:27.912Z,73.20
2017-12-11T20:07:55.713Z,73.10
2017-12-11T20:10:24.076Z,73.10
2017-12-11T20:12:51.943Z,73.10
2017-12-11T20:15:20.588Z,73.10
2017-12-11T20:17:48.115Z,73.10
2017-12-11T20:20:17.167Z,73.10
2017-12-11T20:22:44.932Z,73.10
2017-12-11T20:25:12.709Z,73.10
2017-12-11T20:27:40.985Z,73.10
2017-12-11T20:30:08.481Z,73.10
2017-12-11T20:32:36.068Z,73.10
2017-12-11T20:35:03.685Z,73.10
2017-12-11T20:37:31.549Z,73.10
2017-12-11T20:39:59.091Z,73.10
2017-12-11T20:42:26.951Z,73.10
2017-12-11T20:44:54.508Z,73.10
2017-12-11T20:47:22.296Z,73.20
2017-12-11T20:49:49.978Z,73.10
2017-12-11T20:52:17.499Z,73.20
2017-12-11T20:54:45.060Z,73.20
2017-12-11T20:57:12.541Z,73.10
2017-12-11T20:59:40.787Z,73.10
2017-12-11T21:02:08.271Z,73.10
2017-12-11T21:04:36.536Z,73.10
2017-12-11T21:07:04.016Z,73.10
2017-12-11T21:09:31.525Z,73.10
2017-12-11T21:11:59.035Z,74.30
2017-12-11T21:14:26.529Z,74.60
2017-12-11T21:16:54.019Z,75.60
2017-12-11T21:19:21.638Z,75.90
2017-12-11T21:21:49.295Z,75.80
2017-12-11T21:24:16.826Z,75.70
2017-12-11T21:26:45.184Z,75.20
2017-12-11T21:29:12.673Z,75.20
2017-12-11T21:31:40.144Z,74.70
2017-12-11T21:34:07.682Z,74.60
2017-12-11T21:36:35.398Z,74.30
2017-12-11T21:39:02.989Z,74.20
2017-12-11T21:41:30.472Z,74.10
2017-12-11T21:43:57.955Z,74.10
2017-12-11T21:46:25.452Z,74.10
2017-12-11T21:48:53.733Z,73.90
2017-12-11T21:51:22.008Z,73.80
2017-12-11T21:53:50.330Z,73.80
2017-12-11T21:56:17.871Z,73.80
2017-12-11T21:58:45.367Z,73.80
2017-12-11T22:01:12.851Z,73.80
2017-12-11T22:03:41.095Z,73.60
2017-12-11T22:06:08.592Z,74.40
2017-12-11T22:08:36.842Z,74.90
2017-12-11T22:11:04.428Z,74.90
2017-12-11T22:13:32.822Z,74.50
2017-12-11T22:16:01.021Z,74.50
2017-12-11T22:18:28.662Z,74.00
2017-12-11T22:20:56.219Z,73.80
2017-12-11T22:23:24.446Z,73.70
2017-12-11T22:25:51.925Z,73.70
2017-12-11T22:28:20.210Z,73.40
2017-12-11T22:30:48.467Z,73.40
2017-12-11T22:33:15.954Z,73.40
2017-12-11T22:35:43.454Z,73.10
2017-12-11T22:38:10.989Z,73.10
2017-12-11T22:40:40.025Z,73.10
2017-12-11T22:43:07.524Z,73.10
2017-12-11T22:45:34.995Z,72.90
2017-12-11T22:48:02.473Z,72.90
2017-12-11T22:50:29.971Z,72.90
2017-12-11T22:52:58.286Z,72.80
2017-12-11T22:55:25.878Z,72.80
2017-12-11T22:57:53.507Z,72.70
2017-12-11T23:00:29.843Z,72.60
2017-12-11T23:02:57.346Z,72.50
2017-12-11T23:05:24.846Z,72.50
2017-12-11T23:07:53.086Z,72.50
2017-12-11T23:10:20.575Z,72.50
2017-12-11T23:12:48.831Z,72.30
2017-12-11T23:15:16.325Z,72.30
2017-12-11T23:17:43.943Z,72.30
2017-12-11T23:20:11.452Z,72.30
2017-12-11T23:22:39.682Z,72.10
2017-12-11T23:25:07.177Z,72.20
2017-12-11T23:27:34.655Z,72.00
2017-12-11T23:30:02.155Z,72.00
2017-12-11T23:32:29.648Z,72.00
2017-12-11T23:34:58.360Z,72.00
2017-12-11T23:37:25.999Z,72.80
2017-12-11T23:39:53.510Z,72.00
2017-12-11T23:42:21.051Z,71.80
2017-12-11T23:44:48.539Z,71.80
2017-12-11T23:47:16.038Z,71.80
2017-12-11T23:49:43.606Z,71.80
2017-12-11T23:52:11.073Z,71.80
2017-12-11T23:54:38.595Z,71.70
2017-12-11T23:57:06.838Z,71.50
2017-12-11T23:59:34.338Z,71.40
